sensor_id;sensor_type;location;lat;lon;timestamp;pressure;altitude;pressure_sealevel;temperature;humidity
49723;BME280;43484;43.608;1.458;2023-08-31T00:01:02;99572.44;;;17.08;100.00
49723;BME280;43484;43.608;1.458;2023-08-31T00:03:32;99563.00;;;17.03;100.00
49723;BME280;43484;43.608;1.458;2023-08-31T00:06:03;99549.19;;;17.02;100.00
49723;BME280;43484;43.608;1.458;2023-08-31T00:08:30;99541.38;;;17.10;100.00
49723;BME280;43484;43.608;1.458;2023-08-31T00:10:58;99536.25;;;17.02;100.00
49723;BME280;43484;43.608;1.458;2023-08-31T00:13:24;99532.78;;;17.00;100.00
49723;BME280;43484;43.608;1.458;2023-08-31T00:15:55;99541.41;;;17.02;100.00
49723;BME280;43484;43.608;1.458;2023-08-31T00:18:23;99530.16;;;17.06;100.00
49723;BME280;43484;43.608;1.458;2023-08-31T00:20:50;99534.50;;;17.00;100.00
49723;BME280;43484;43.608;1.458;2023-08-31T00:23:17;99532.81;;;16.93;100.00
49723;BME280;43484;43.608;1.458;2023-08-31T00:25:46;99528.47;;;16.99;100.00
49723;BME280;43484;43.608;1.458;2023-08-31T00:28:15;99523.28;;;16.95;100.00
49723;BME280;43484;43.608;1.458;2023-08-31T00:30:42;99519.84;;;16.85;100.00
49723;BME280;43484;43.608;1.458;2023-08-31T00:33:11;99519.03;;;16.74;100.00
49723;BME280;43484;43.608;1.458;2023-08-31T00:35:39;99507.78;;;16.77;100.00
49723;BME280;43484;43.608;1.458;2023-08-31T00:38:13;99499.16;;;16.76;100.00
49723;BME280;43484;43.608;1.458;2023-08-31T00:40:44;99493.13;;;16.68;100.00
49723;BME280;43484;43.608;1.458;2023-08-31T00:43:14;99487.97;;;16.67;100.00
49723;BME280;43484;43.608;1.458;2023-08-31T00:45:43;99487.97;;;16.70;100.00
49723;BME280;43484;43.608;1.458;2023-08-31T00:48:11;99484.53;;;16.71;100.00
49723;BME280;43484;43.608;1.458;2023-08-31T00:50:38;99480.19;;;16.71;100.00
49723;BME280;43484;43.608;1.458;2023-08-31T00:53:05;99481.06;;;16.69;100.00
49723;BME280;43484;43.608;1.458;2023-08-31T00:55:32;99475.88;;;16.73;100.00
49723;BME280;43484;43.608;1.458;2023-08-31T00:57:59;99471.56;;;16.77;100.00
49723;BME280;43484;43.608;1.458;2023-08-31T01:06:14;99475.03;;;16.70;100.00
49723;BME280;43484;43.608;1.458;2023-08-31T01:08:56;99467.28;;;16.67;100.00
49723;BME280;43484;43.608;1.458;2023-08-31T01:11:37;99470.72;;;16.58;100.00
49723;BME280;43484;43.608;1.458;2023-08-31T01:14:13;99457.81;;;16.51;100.00
49723;BME280;43484;43.608;1.458;2023-08-31T01:16:44;99462.97;;;16.55;100.00
49723;BME280;43484;43.608;1.458;2023-08-31T01:19:40;99456.94;;;16.49;100.00
49723;BME280;43484;43.608;1.458;2023-08-31T01:22:14;99456.09;;;16.53;100.00
49723;BME280;43484;43.608;1.458;2023-08-31T01:24:44;99450.03;;;16.67;100.00
49723;BME280;43484;43.608;1.458;2023-08-31T01:27:10;99444.84;;;16.45;100.00
49723;BME280;43484;43.608;1.458;2023-08-31T01:29:37;99439.66;;;16.45;100.00
49723;BME280;43484;43.608;1.458;2023-08-31T01:32:07;99445.72;;;16.50;100.00
49723;BME280;43484;43.608;1.458;2023-08-31T01:34:34;99444.88;;;16.55;100.00
49723;BME280;43484;43.608;1.458;2023-08-31T01:37:09;99444.00;;;16.53;100.00
49723;BME280;43484;43.608;1.458;2023-08-31T01:39:55;99440.56;;;16.57;100.00
49723;BME280;43484;43.608;1.458;2023-08-31T01:42:26;99449.19;;;16.53;100.00
49723;BME280;43484;43.608;1.458;2023-08-31T01:44:55;99446.59;;;16.52;100.00
49723;BME280;43484;43.608;1.458;2023-08-31T01:47:25;99444.03;;;16.61;100.00
49723;BME280;43484;43.608;1.458;2023-08-31T01:49:52;99441.41;;;16.53;100.00
49723;BME280;43484;43.608;1.458;2023-08-31T01:52:19;99441.44;;;16.58;100.00
49723;BME280;43484;43.608;1.458;2023-08-31T01:54:46;99436.25;;;16.67;100.00
49723;BME280;43484;43.608;1.458;2023-08-31T01:57:12;99436.22;;;16.68;100.00
49723;BME280;43484;43.608;1.458;2023-08-31T01:59:39;99438.84;;;16.62;100.00
49723;BME280;43484;43.608;1.458;2023-08-31T02:02:06;99436.25;;;16.61;100.00
49723;BME280;43484;43.608;1.458;2023-08-31T02:04:33;99444.03;;;16.58;100.00
49723;BME280;43484;43.608;1.458;2023-08-31T02:06:59;99441.44;;;16.46;100.00
49723;BME280;43484;43.608;1.458;2023-08-31T02:09:26;99439.69;;;16.57;100.00
49723;BME280;43484;43.608;1.458;2023-08-31T02:11:53;99439.66;;;16.45;100.00
49723;BME280;43484;43.608;1.458;2023-08-31T02:14:19;99437.09;;;16.40;100.00
49723;BME280;43484;43.608;1.458;2023-08-31T02:16:46;99428.47;;;16.40;100.00
49723;BME280;43484;43.608;1.458;2023-08-31T02:19:13;99427.63;;;16.44;100.00
49723;BME280;43484;43.608;1.458;2023-08-31T02:21:39;99430.22;;;16.47;100.00
49723;BME280;43484;43.608;1.458;2023-08-31T02:24:06;99431.94;;;16.37;100.00
49723;BME280;43484;43.608;1.458;2023-08-31T02:26:35;99421.59;;;16.36;100.00
49723;BME280;43484;43.608;1.458;2023-08-31T02:29:02;99413.84;;;16.54;100.00
49723;BME280;43484;43.608;1.458;2023-08-31T02:31:29;99416.41;;;16.72;100.00
49723;BME280;43484;43.608;1.458;2023-08-31T02:33:56;99432.78;;;16.77;100.00
49723;BME280;43484;43.608;1.458;2023-08-31T02:36:23;99446.56;;;16.80;100.00
49723;BME280;43484;43.608;1.458;2023-08-31T02:38:49;99459.50;;;16.82;100.00
49723;BME280;43484;43.608;1.458;2023-08-31T02:41:16;99468.97;;;16.87;100.00
49723;BME280;43484;43.608;1.458;2023-08-31T02:43:43;99474.19;;;16.68;100.00
49723;BME280;43484;43.608;1.458;2023-08-31T02:46:13;99475.91;;;16.64;100.00
49723;BME280;43484;43.608;1.458;2023-08-31T02:48:39;99476.75;;;16.62;100.00
49723;BME280;43484;43.608;1.458;2023-08-31T02:51:06;99471.59;;;16.68;100.00
49723;BME280;43484;43.608;1.458;2023-08-31T02:53:33;99469.84;;;16.68;100.00
49723;BME280;43484;43.608;1.458;2023-08-31T02:56:00;99469.00;;;16.71;100.00
49723;BME280;43484;43.608;1.458;2023-08-31T02:58:26;99472.44;;;16.76;100.00
49723;BME280;43484;43.608;1.458;2023-08-31T03:00:53;99475.91;;;16.81;100.00
49723;BME280;43484;43.608;1.458;2023-08-31T03:03:20;99475.03;;;16.88;100.00
49723;BME280;43484;43.608;1.458;2023-08-31T03:05:47;99479.31;;;16.93;100.00
49723;BME280;43484;43.608;1.458;2023-08-31T03:08:14;99487.09;;;16.90;100.00
49723;BME280;43484;43.608;1.458;2023-08-31T03:10:40;99497.44;;;16.86;100.00
49723;BME280;43484;43.608;1.458;2023-08-31T03:13:07;99493.97;;;16.87;100.00
49723;BME280;43484;43.608;1.458;2023-08-31T03:15:33;99500.88;;;16.92;100.00
49723;BME280;43484;43.608;1.458;2023-08-31T03:18:00;99501.75;;;16.84;100.00
49723;BME280;43484;43.608;1.458;2023-08-31T03:20:27;99500.91;;;16.76;100.00
49723;BME280;43484;43.608;1.458;2023-08-31T03:22:54;99493.16;;;16.77;100.00
49723;BME280;43484;43.608;1.458;2023-08-31T03:25:21;99500.03;;;16.86;100.00
49723;BME280;43484;43.608;1.458;2023-08-31T03:27:47;99503.50;;;16.88;100.00
49723;BME280;43484;43.608;1.458;2023-08-31T03:30:14;99510.38;;;16.84;100.00
49723;BME280;43484;43.608;1.458;2023-08-31T03:32:40;99506.91;;;16.75;100.00
49723;BME280;43484;43.608;1.458;2023-08-31T03:35:08;99496.59;;;16.79;100.00
49723;BME280;43484;43.608;1.458;2023-08-31T03:37:35;99505.22;;;16.84;100.00
49723;BME280;43484;43.608;1.458;2023-08-31T03:40:02;99511.22;;;16.85;100.00
49723;BME280;43484;43.608;1.458;2023-08-31T03:42:31;99515.56;;;16.86;100.00
49723;BME280;43484;43.608;1.458;2023-08-31T03:44:57;99519.00;;;16.94;100.00
49723;BME280;43484;43.608;1.458;2023-08-31T03:47:24;99524.16;;;16.86;100.00
49723;BME280;43484;43.608;1.458;2023-08-31T03:49:51;99519.84;;;16.88;100.00
49723;BME280;43484;43.608;1.458;2023-08-31T03:52:17;99521.59;;;16.80;100.00
49723;BME280;43484;43.608;1.458;2023-08-31T03:54:44;99519.84;;;16.76;100.00
49723;BME280;43484;43.608;1.458;2023-08-31T03:57:11;99519.03;;;16.59;100.00
49723;BME280;43484;43.608;1.458;2023-08-31T03:59:37;99513.78;;;16.41;100.00
49723;BME280;43484;43.608;1.458;2023-08-31T04:02:04;99505.19;;;16.51;100.00
49723;BME280;43484;43.608;1.458;2023-08-31T04:04:31;99490.50;;;16.24;100.00
49723;BME280;43484;43.608;1.458;2023-08-31T04:06:58;99487.94;;;16.27;100.00
49723;BME280;43484;43.608;1.458;2023-08-31T04:09:25;99479.34;;;16.39;100.00
49723;BME280;43484;43.608;1.458;2023-08-31T04:11:52;99475.88;;;16.37;100.00
49723;BME280;43484;43.608;1.458;2023-08-31T04:14:18;99477.59;;;16.33;100.00
49723;BME280;43484;43.608;1.458;2023-08-31T04:16:45;99470.72;;;16.36;100.00
49723;BME280;43484;43.608;1.458;2023-08-31T04:19:13;99470.72;;;16.37;100.00
49723;BME280;43484;43.608;1.458;2023-08-31T04:21:40;99482.75;;;16.38;100.00
49723;BME280;43484;43.608;1.458;2023-08-31T04:24:07;99487.09;;;16.51;100.00
49723;BME280;43484;43.608;1.458;2023-08-31T04:26:33;99487.97;;;16.52;100.00
49723;BME280;43484;43.608;1.458;2023-08-31T04:29:02;99497.44;;;16.48;100.00
49723;BME280;43484;43.608;1.458;2023-08-31T04:31:29;99494.88;;;16.56;100.00
49723;BME280;43484;43.608;1.458;2023-08-31T04:33:56;99515.53;;;16.41;100.00
49723;BME280;43484;43.608;1.458;2023-08-31T04:36:23;99516.41;;;16.49;100.00
49723;BME280;43484;43.608;1.458;2023-08-31T04:38:49;99513.84;;;16.47;100.00
49723;BME280;43484;43.608;1.458;2023-08-31T04:41:17;99522.38;;;16.29;100.00
49723;BME280;43484;43.608;1.458;2023-08-31T04:43:43;99511.22;;;16.27;100.00
49723;BME280;43484;43.608;1.458;2023-08-31T04:46:12;99518.09;;;16.22;100.00
49723;BME280;43484;43.608;1.458;2023-08-31T04:48:39;99511.19;;;16.30;100.00
49723;BME280;43484;43.608;1.458;2023-08-31T04:51:06;99514.63;;;16.31;100.00
49723;BME280;43484;43.608;1.458;2023-08-31T04:53:32;99513.81;;;16.43;100.00
49723;BME280;43484;43.608;1.458;2023-08-31T04:55:59;99522.47;;;16.52;100.00
49723;BME280;43484;43.608;1.458;2023-08-31T04:58:25;99523.31;;;16.50;100.00
49723;BME280;43484;43.608;1.458;2023-08-31T05:00:52;99526.72;;;16.44;100.00
49723;BME280;43484;43.608;1.458;2023-08-31T05:03:19;99535.31;;;16.45;100.00
49723;BME280;43484;43.608;1.458;2023-08-31T05:05:45;99549.09;;;16.34;100.00
49723;BME280;43484;43.608;1.458;2023-08-31T05:08:12;99538.78;;;16.27;100.00
49723;BME280;43484;43.608;1.458;2023-08-31T05:10:38;99537.91;;;16.29;100.00
49723;BME280;43484;43.608;1.458;2023-08-31T05:13:05;99541.34;;;16.36;100.00
49723;BME280;43484;43.608;1.458;2023-08-31T05:15:32;99527.59;;;16.39;100.00
49723;BME280;43484;43.608;1.458;2023-08-31T05:18:00;99537.91;;;16.45;100.00
49723;BME280;43484;43.608;1.458;2023-08-31T05:20:26;99542.25;;;16.44;100.00
49723;BME280;43484;43.608;1.458;2023-08-31T05:22:53;99555.22;;;16.46;100.00
49723;BME280;43484;43.608;1.458;2023-08-31T05:25:20;99562.94;;;16.44;100.00
49723;BME280;43484;43.608;1.458;2023-08-31T05:27:47;99570.72;;;16.46;100.00
49723;BME280;43484;43.608;1.458;2023-08-31T05:30:13;99573.31;;;16.52;100.00
49723;BME280;43484;43.608;1.458;2023-08-31T05:32:40;99579.34;;;16.51;100.00
49723;BME280;43484;43.608;1.458;2023-08-31T05:35:07;99580.19;;;16.48;100.00
49723;BME280;43484;43.608;1.458;2023-08-31T05:37:35;99593.97;;;16.43;100.00
49723;BME280;43484;43.608;1.458;2023-08-31T05:40:03;99587.91;;;16.45;100.00
49723;BME280;43484;43.608;1.458;2023-08-31T05:42:33;99588.81;;;16.52;100.00
49723;BME280;43484;43.608;1.458;2023-08-31T05:44:59;99593.13;;;16.47;100.00
49723;BME280;43484;43.608;1.458;2023-08-31T05:47:26;99594.88;;;16.54;100.00
49723;BME280;43484;43.608;1.458;2023-08-31T05:49:52;99605.22;;;16.55;100.00
49723;BME280;43484;43.608;1.458;2023-08-31T05:52:19;99610.38;;;16.49;100.00
49723;BME280;43484;43.608;1.458;2023-08-31T05:54:45;99613.78;;;16.44;100.00
49723;BME280;43484;43.608;1.458;2023-08-31T05:57:12;99621.56;;;16.47;100.00
49723;BME280;43484;43.608;1.458;2023-08-31T05:59:39;99626.66;;;16.33;100.00
49723;BME280;43484;43.608;1.458;2023-08-31T06:02:05;99632.66;;;16.23;100.00
49723;BME280;43484;43.608;1.458;2023-08-31T06:04:34;99634.44;;;16.38;100.00
49723;BME280;43484;43.608;1.458;2023-08-31T06:07:01;99637.03;;;16.38;100.00
49723;BME280;43484;43.608;1.458;2023-08-31T06:09:28;99630.19;;;16.46;100.00
49723;BME280;43484;43.608;1.458;2023-08-31T06:11:54;99637.94;;;16.49;100.00
49723;BME280;43484;43.608;1.458;2023-08-31T06:14:21;99639.66;;;16.48;100.00
49723;BME280;43484;43.608;1.458;2023-08-31T06:16:47;99635.41;;;16.61;100.00
49723;BME280;43484;43.608;1.458;2023-08-31T06:19:14;99640.56;;;16.68;100.00
49723;BME280;43484;43.608;1.458;2023-08-31T06:21:41;99650.94;;;16.74;100.00
49723;BME280;43484;43.608;1.458;2023-08-31T06:24:08;99651.81;;;16.78;100.00
49723;BME280;43484;43.608;1.458;2023-08-31T06:26:39;99659.56;;;16.88;100.00
49723;BME280;43484;43.608;1.458;2023-08-31T06:29:06;99667.34;;;16.99;100.00
49723;BME280;43484;43.608;1.458;2023-08-31T06:31:34;99679.44;;;17.03;100.00
49723;BME280;43484;43.608;1.458;2023-08-31T06:34:01;99684.63;;;17.13;100.00
49723;BME280;43484;43.608;1.458;2023-08-31T06:36:28;99711.41;;;17.23;100.00
49723;BME280;43484;43.608;1.458;2023-08-31T06:38:55;99723.47;;;17.27;100.00
49723;BME280;43484;43.608;1.458;2023-08-31T06:41:22;99739.84;;;17.36;100.00
49723;BME280;43484;43.608;1.458;2023-08-31T06:43:48;99776.13;;;17.23;100.00
49723;BME280;43484;43.608;1.458;2023-08-31T06:46:15;99786.44;;;17.08;100.00
49723;BME280;43484;43.608;1.458;2023-08-31T06:48:50;99788.00;;;16.71;100.00
49723;BME280;43484;43.608;1.458;2023-08-31T06:51:16;99759.50;;;16.50;100.00
49723;BME280;43484;43.608;1.458;2023-08-31T06:53:43;99742.31;;;16.70;100.00
49723;BME280;43484;43.608;1.458;2023-08-31T06:56:10;99744.13;;;16.88;100.00
49723;BME280;43484;43.608;1.458;2023-08-31T06:58:37;99754.44;;;16.74;100.00
49723;BME280;43484;43.608;1.458;2023-08-31T07:01:06;99758.72;;;16.71;100.00
49723;BME280;43484;43.608;1.458;2023-08-31T07:03:33;99746.66;;;16.82;100.00
49723;BME280;43484;43.608;1.458;2023-08-31T07:06:00;99750.09;;;16.73;100.00
49723;BME280;43484;43.608;1.458;2023-08-31T07:08:27;99758.75;;;16.83;100.00
49723;BME280;43484;43.608;1.458;2023-08-31T07:10:53;99772.59;;;16.88;100.00
49723;BME280;43484;43.608;1.458;2023-08-31T07:13:20;99769.13;;;16.87;100.00
49723;BME280;43484;43.608;1.458;2023-08-31T07:15:46;99767.41;;;16.98;100.00
49723;BME280;43484;43.608;1.458;2023-08-31T07:18:15;99778.66;;;17.03;100.00
49723;BME280;43484;43.608;1.458;2023-08-31T07:20:42;99782.13;;;17.17;100.00
49723;BME280;43484;43.608;1.458;2023-08-31T07:23:08;99793.38;;;17.25;100.00
49723;BME280;43484;43.608;1.458;2023-08-31T07:25:37;99808.03;;;17.26;100.00
49723;BME280;43484;43.608;1.458;2023-08-31T07:28:03;99819.25;;;17.19;100.00
49723;BME280;43484;43.608;1.458;2023-08-31T07:30:30;99834.78;;;17.24;100.00
49723;BME280;43484;43.608;1.458;2023-08-31T07:32:57;99837.38;;;17.28;100.00
49723;BME280;43484;43.608;1.458;2023-08-31T07:35:26;99843.41;;;17.15;100.00
49723;BME280;43484;43.608;1.458;2023-08-31T07:37:53;99848.66;;;17.38;100.00
49723;BME280;43484;43.608;1.458;2023-08-31T07:40:19;99849.56;;;17.52;100.00
49723;BME280;43484;43.608;1.458;2023-08-31T07:42:46;99864.19;;;17.44;100.00
49723;BME280;43484;43.608;1.458;2023-08-31T07:45:13;99872.88;;;17.50;100.00
49723;BME280;43484;43.608;1.458;2023-08-31T07:47:39;99883.25;;;17.58;100.00
49723;BME280;43484;43.608;1.458;2023-08-31T07:50:06;99887.56;;;17.56;100.00
49723;BME280;43484;43.608;1.458;2023-08-31T07:52:33;99889.31;;;17.68;100.00
49723;BME280;43484;43.608;1.458;2023-08-31T07:55:00;99898.84;;;17.75;100.00
49723;BME280;43484;43.608;1.458;2023-08-31T07:57:27;99909.19;;;17.78;100.00
49723;BME280;43484;43.608;1.458;2023-08-31T07:59:54;99912.66;;;17.84;100.00
49723;BME280;43484;43.608;1.458;2023-08-31T08:02:20;99929.09;;;17.89;100.00
49723;BME280;43484;43.608;1.458;2023-08-31T08:04:47;99953.28;;;17.94;100.00
49723;BME280;43484;43.608;1.458;2023-08-31T08:07:14;99958.47;;;18.00;100.00
49723;BME280;43484;43.608;1.458;2023-08-31T08:09:41;99970.59;;;18.18;100.00
49723;BME280;43484;43.608;1.458;2023-08-31T08:12:08;99975.78;;;18.12;100.00
49723;BME280;43484;43.608;1.458;2023-08-31T08:14:34;99975.75;;;18.06;100.00
49723;BME280;43484;43.608;1.458;2023-08-31T08:17:01;99980.09;;;18.11;100.00
49723;BME280;43484;43.608;1.458;2023-08-31T08:19:28;99987.03;;;18.18;100.00
49723;BME280;43484;43.608;1.458;2023-08-31T08:21:54;99993.94;;;18.12;100.00
49723;BME280;43484;43.608;1.458;2023-08-31T08:24:21;100002.59;;;18.24;100.00
49723;BME280;43484;43.608;1.458;2023-08-31T08:26:48;100004.34;;;18.28;100.00
49723;BME280;43484;43.608;1.458;2023-08-31T08:29:15;100008.66;;;18.23;100.00
49723;BME280;43484;43.608;1.458;2023-08-31T08:31:41;100016.50;;;18.52;100.00
49723;BME280;43484;43.608;1.458;2023-08-31T08:34:09;100025.06;;;18.37;100.00
49723;BME280;43484;43.608;1.458;2023-08-31T08:36:35;100031.16;;;18.45;100.00
49723;BME280;43484;43.608;1.458;2023-08-31T08:39:02;100038.09;;;18.48;100.00
49723;BME280;43484;43.608;1.458;2023-08-31T08:41:31;100035.50;;;18.46;100.00
49723;BME280;43484;43.608;1.458;2023-08-31T08:44:02;100045.00;;;18.43;100.00
49723;BME280;43484;43.608;1.458;2023-08-31T08:46:33;100038.94;;;18.33;100.00
49723;BME280;43484;43.608;1.458;2023-08-31T08:49:00;100039.81;;;18.47;100.00
49723;BME280;43484;43.608;1.458;2023-08-31T08:51:29;100039.81;;;18.41;100.00
49723;BME280;43484;43.608;1.458;2023-08-31T08:53:59;100043.28;;;18.45;100.00
49723;BME280;43484;43.608;1.458;2023-08-31T08:56:26;100036.38;;;18.65;100.00
49723;BME280;43484;43.608;1.458;2023-08-31T08:58:53;100045.03;;;18.76;100.00
49723;BME280;43484;43.608;1.458;2023-08-31T09:01:20;100041.56;;;18.85;100.00
49723;BME280;43484;43.608;1.458;2023-08-31T09:03:49;100043.28;;;18.96;100.00
49723;BME280;43484;43.608;1.458;2023-08-31T09:06:16;100046.75;;;19.00;100.00
49723;BME280;43484;43.608;1.458;2023-08-31T09:08:43;100051.06;;;18.98;100.00
49723;BME280;43484;43.608;1.458;2023-08-31T09:11:19;100052.78;;;19.05;100.00
49723;BME280;43484;43.608;1.458;2023-08-31T09:13:48;100058.88;;;19.04;100.00
49723;BME280;43484;43.608;1.458;2023-08-31T09:16:27;100057.97;;;19.18;100.00
49723;BME280;43484;43.608;1.458;2023-08-31T09:18:58;100057.97;;;19.21;100.00
49723;BME280;43484;43.608;1.458;2023-08-31T09:21:35;100061.44;;;19.37;100.00
49723;BME280;43484;43.608;1.458;2023-08-31T09:24:04;100055.34;;;19.36;100.00
49723;BME280;43484;43.608;1.458;2023-08-31T09:26:37;100056.22;;;19.49;100.00
49723;BME280;43484;43.608;1.458;2023-08-31T09:29:05;100070.06;;;19.43;100.00
49723;BME280;43484;43.608;1.458;2023-08-31T09:31:32;100068.34;;;19.38;100.00
49723;BME280;43484;43.608;1.458;2023-08-31T09:33:58;100052.75;;;19.47;100.00
49723;BME280;43484;43.608;1.458;2023-08-31T09:36:26;100056.19;;;19.50;100.00
49723;BME280;43484;43.608;1.458;2023-08-31T09:38:58;100055.31;;;19.54;100.00
49723;BME280;43484;43.608;1.458;2023-08-31T09:41:25;100058.72;;;19.70;100.00
49723;BME280;43484;43.608;1.458;2023-08-31T09:43:52;100059.53;;;19.87;100.00
49723;BME280;43484;43.608;1.458;2023-08-31T09:46:19;100059.41;;;20.10;100.00
49723;BME280;43484;43.608;1.458;2023-08-31T09:48:47;100053.25;;;20.30;100.00
49723;BME280;43484;43.608;1.458;2023-08-31T09:51:14;100052.28;;;20.48;100.00
49723;BME280;43484;43.608;1.458;2023-08-31T09:53:45;100057.56;;;20.34;100.00
49723;BME280;43484;43.608;1.458;2023-08-31T09:56:17;100049.63;;;20.52;100.00
49723;BME280;43484;43.608;1.458;2023-08-31T09:58:44;100047.75;;;20.71;100.00
49723;BME280;43484;43.608;1.458;2023-08-31T10:01:11;100042.63;;;20.59;100.00
49723;BME280;43484;43.608;1.458;2023-08-31T10:03:53;100036.44;;;20.76;100.00
49723;BME280;43484;43.608;1.458;2023-08-31T10:06:21;100041.50;;;20.93;100.00
49723;BME280;43484;43.608;1.458;2023-08-31T10:08:48;100039.88;;;20.78;100.00
49723;BME280;43484;43.608;1.458;2023-08-31T10:11:15;100044.97;;;20.90;100.00
49723;BME280;43484;43.608;1.458;2023-08-31T10:13:43;100034.53;;;20.99;100.00
49723;BME280;43484;43.608;1.458;2023-08-31T10:16:11;100034.66;;;20.78;100.00
49723;BME280;43484;43.608;1.458;2023-08-31T10:18:38;100031.06;;;20.94;100.00
49723;BME280;43484;43.608;1.458;2023-08-31T10:21:05;100031.03;;;21.00;100.00
49723;BME280;43484;43.608;1.458;2023-08-31T10:23:32;100032.78;;;20.95;100.00
49723;BME280;43484;43.608;1.458;2023-08-31T10:26:00;100031.03;;;21.00;100.00
49723;BME280;43484;43.608;1.458;2023-08-31T10:28:27;100025.75;;;21.05;100.00
49723;BME280;43484;43.608;1.458;2023-08-31T10:31:09;100021.47;;;21.02;100.00
49723;BME280;43484;43.608;1.458;2023-08-31T10:33:43;100015.28;;;21.12;100.00
49723;BME280;43484;43.608;1.458;2023-08-31T10:36:17;100016.81;;;21.32;100.00
49723;BME280;43484;43.608;1.458;2023-08-31T10:38:59;100009.81;;;21.37;100.00
49723;BME280;43484;43.608;1.458;2023-08-31T10:41:35;100010.63;;;21.42;100.00
49723;BME280;43484;43.608;1.458;2023-08-31T10:44:24;100008.75;;;21.51;100.00
49723;BME280;43484;43.608;1.458;2023-08-31T10:46:52;100000.00;;;21.57;100.00
49723;BME280;43484;43.608;1.458;2023-08-31T10:49:20;99999.19;;;21.50;100.00
49723;BME280;43484;43.608;1.458;2023-08-31T10:54:22;99984.44;;;21.49;100.00
49723;BME280;43484;43.608;1.458;2023-08-31T10:59:52;99993.00;;;21.62;100.00
49723;BME280;43484;43.608;1.458;2023-08-31T11:02:37;99991.22;;;21.62;100.00
49723;BME280;43484;43.608;1.458;2023-08-31T11:05:17;99988.97;;;21.34;100.00
49723;BME280;43484;43.608;1.458;2023-08-31T11:07:46;99985.84;;;21.03;100.00
49723;BME280;43484;43.608;1.458;2023-08-31T11:10:15;99983.91;;;21.20;100.00
49723;BME280;43484;43.608;1.458;2023-08-31T11:12:46;99985.59;;;21.26;100.00
49723;BME280;43484;43.608;1.458;2023-08-31T11:15:18;99978.66;;;21.26;100.00
49723;BME280;43484;43.608;1.458;2023-08-31T11:17:45;99970.88;;;21.20;100.00
49723;BME280;43484;43.608;1.458;2023-08-31T11:20:17;99977.84;;;21.20;100.00
49723;BME280;43484;43.608;1.458;2023-08-31T11:22:47;99974.25;;;21.31;100.00
49723;BME280;43484;43.608;1.458;2023-08-31T11:25:17;99967.38;;;21.24;100.00
49723;BME280;43484;43.608;1.458;2023-08-31T11:27:58;99973.47;;;21.23;100.00
49723;BME280;43484;43.608;1.458;2023-08-31T11:30:27;99972.47;;;21.35;100.00
49723;BME280;43484;43.608;1.458;2023-08-31T11:32:54;99967.09;;;21.48;100.00
49723;BME280;43484;43.608;1.458;2023-08-31T11:35:22;99971.25;;;21.61;100.00
49723;BME280;43484;43.608;1.458;2023-08-31T11:37:51;99970.44;;;21.58;100.00
49723;BME280;43484;43.608;1.458;2023-08-31T11:40:18;99965.97;;;21.66;100.00
49723;BME280;43484;43.608;1.458;2023-08-31T11:42:45;99966.81;;;21.68;100.00
49723;BME280;43484;43.608;1.458;2023-08-31T11:45:12;99969.94;;;21.95;100.00
49723;BME280;43484;43.608;1.458;2023-08-31T11:47:41;99968.22;;;21.94;100.00
49723;BME280;43484;43.608;1.458;2023-08-31T11:50:10;99960.53;;;21.87;100.00
49723;BME280;43484;43.608;1.458;2023-08-31T11:52:38;99967.41;;;21.91;100.00
49723;BME280;43484;43.608;1.458;2023-08-31T11:55:13;99972.59;;;21.92;100.00
49723;BME280;43484;43.608;1.458;2023-08-31T11:57:48;99961.16;;;22.02;100.00
49723;BME280;43484;43.608;1.458;2023-08-31T12:00:18;99959.34;;;22.06;100.00
49723;BME280;43484;43.608;1.458;2023-08-31T12:02:45;99972.44;;;22.03;100.00
49723;BME280;43484;43.608;1.458;2023-08-31T12:05:15;99970.72;;;22.03;100.00
49723;BME280;43484;43.608;1.458;2023-08-31T12:07:41;99962.13;;;21.94;100.00
49723;BME280;43484;43.608;1.458;2023-08-31T12:10:08;99960.31;;;22.02;100.00
49723;BME280;43484;43.608;1.458;2023-08-31T12:12:36;99954.72;;;22.24;100.00
49723;BME280;43484;43.608;1.458;2023-08-31T12:15:05;99955.53;;;22.28;100.00
49723;BME280;43484;43.608;1.458;2023-08-31T12:17:36;99950.31;;;22.28;100.00
49723;BME280;43484;43.608;1.458;2023-08-31T12:20:04;99945.22;;;22.22;100.00
49723;BME280;43484;43.608;1.458;2023-08-31T12:22:34;99939.03;;;22.26;100.00
49723;BME280;43484;43.608;1.458;2023-08-31T12:25:01;99947.00;;;22.18;100.00
49723;BME280;43484;43.608;1.458;2023-08-31T12:27:28;99948.25;;;22.47;100.00
49723;BME280;43484;43.608;1.458;2023-08-31T12:29:56;99948.91;;;22.62;100.00
49723;BME280;43484;43.608;1.458;2023-08-31T12:32:24;99954.06;;;22.65;100.00
49723;BME280;43484;43.608;1.458;2023-08-31T12:34:51;99942.91;;;22.56;100.00
49723;BME280;43484;43.608;1.458;2023-08-31T12:37:17;99940.28;;;22.57;100.00
49723;BME280;43484;43.608;1.458;2023-08-31T12:39:44;99939.28;;;22.64;100.00
49723;BME280;43484;43.608;1.458;2023-08-31T12:42:12;99932.34;;;22.63;100.00
49723;BME280;43484;43.608;1.458;2023-08-31T12:44:49;99935.75;;;22.67;100.00
49723;BME280;43484;43.608;1.458;2023-08-31T12:47:15;99931.22;;;22.76;100.00
49723;BME280;43484;43.608;1.458;2023-08-31T12:49:44;99931.13;;;22.82;100.00
49723;BME280;43484;43.608;1.458;2023-08-31T12:52:11;99931.84;;;22.90;100.00
49723;BME280;43484;43.608;1.458;2023-08-31T12:54:37;99932.91;;;22.80;100.00
49723;BME280;43484;43.608;1.458;2023-08-31T12:57:04;99922.31;;;22.86;100.00
49723;BME280;43484;43.608;1.458;2023-08-31T12:59:31;99922.19;;;22.94;100.00
49723;BME280;43484;43.608;1.458;2023-08-31T13:01:58;99919.38;;;23.03;100.00
49723;BME280;43484;43.608;1.458;2023-08-31T13:04:25;99921.09;;;23.05;100.00